»·PEaware :: N714TW KSMX-KBFL

N714TW :: KSMX-KBFL

FLIGHT INFORMATION

Flight Status: Arrived
Operator: Privately registered:
United States
More flights under this callsign
Pilot: Peter S. (23284)
Aircraft: CESSNA T210 TURBO CENTURION
(T210)
More flights by this aircraft type
Origin: KSMX Santa Maria Pub/Capt Hancock
United States
Destination: KBFL Meadows
United States
More flights between these airports :: More routes between these airports
Route:
File this flight plan on PilotEdge
Remarks: CAT5
Altitude:
(Current/Filed)
7,500ft
Speed:
(Current/Filed)
140kts
Departed: 02-Feb-19 08:31 PM
Arrived: 02-Feb-19 09:07 PM
Distance/Time
Traveled:
76nm/0:36
Distance/Time
To Go:
Arrived

Flight Plot

Page will automatically refresh every two minutes.


Map Options




Map Legend


Flown Route
Filed Route
Departure Airport
Arrival Airport
Navaid (VOR, NDB)
Fix

Horizontal Profiles

Position Reports

Time Latitude Longitude Heading Altitude Ground
Speed
02-Feb-19 20:18 34.900985 -120.451761 228 265ft 0kts
02-Feb-19 20:19 34.900985 -120.451761 228 265ft 0kts
02-Feb-19 20:20 34.900985 -120.451761 228 265ft 0kts
02-Feb-19 20:21 34.900985 -120.451761 228 265ft 0kts
02-Feb-19 20:21 34.900985 -120.451761 228 265ft 0kts
02-Feb-19 20:22 34.900985 -120.451761 228 265ft 0kts
02-Feb-19 20:24 34.900985 -120.451761 228 265ft 0kts
02-Feb-19 20:24 34.900985 -120.451761 228 265ft 0kts
02-Feb-19 20:25 34.901393 -120.453572 315 265ft 13kts
02-Feb-19 20:26 34.904949 -120.457871 315 265ft 18kts
02-Feb-19 20:28 34.908820 -120.462912 245 265ft 13kts
02-Feb-19 20:28 34.908648 -120.463232 223 265ft 0kts
02-Feb-19 20:29 34.908648 -120.463232 223 265ft 0kts
02-Feb-19 20:30 34.902551 -120.457215 131 395ft 91kts
02-Feb-19 20:31 34.891367 -120.432495 56 1823ft 87kts
02-Feb-19 20:32 34.912265 -120.417630 63 3141ft 89kts
02-Feb-19 20:33 34.924761 -120.391160 63 4462ft 90kts
02-Feb-19 20:34 34.935769 -120.363280 60 5750ft 89kts
02-Feb-19 20:35 34.945718 -120.339084 64 6690ft 88kts
02-Feb-19 20:36 34.956539 -120.313921 62 7471ft 112kts
02-Feb-19 20:37 34.973401 -120.272104 69 7454ft 157kts
02-Feb-19 20:38 34.990893 -120.222296 66 7520ft 155kts
02-Feb-19 20:39 35.010217 -120.176160 64 7660ft 156kts
02-Feb-19 20:40 35.028283 -120.127433 47 7751ft 149kts
02-Feb-19 20:41 35.047809 -120.079914 64 7669ft 160kts
02-Feb-19 20:42 35.066656 -120.030111 65 7646ft 160kts
02-Feb-19 20:43 35.086581 -119.981469 58 7634ft 159kts
02-Feb-19 20:44 35.104132 -119.932029 64 7605ft 160kts
02-Feb-19 20:45 35.123872 -119.881464 64 7692ft 157kts
02-Feb-19 20:46 35.142229 -119.829168 66 7655ft 159kts
02-Feb-19 20:47 35.160164 -119.777178 66 7637ft 159kts
02-Feb-19 20:48 35.179343 -119.725523 65 7693ft 157kts
02-Feb-19 20:49 35.199154 -119.675179 61 7720ft 158kts
02-Feb-19 20:50 35.219158 -119.624781 65 7677ft 160kts
02-Feb-19 20:51 35.237230 -119.572900 65 7456ft 158kts
02-Feb-19 20:52 35.257605 -119.521262 59 6691ft 157kts
02-Feb-19 20:53 35.276870 -119.471487 66 6022ft 153kts
02-Feb-19 20:54 35.296404 -119.423001 63 5361ft 151kts
02-Feb-19 20:55 35.314405 -119.375939 64 4798ft 145kts
02-Feb-19 20:56 35.331257 -119.331533 64 4474ft 139kts
02-Feb-19 20:57 35.347720 -119.285718 66 3990ft 145kts
02-Feb-19 20:58 35.364720 -119.240087 65 3610ft 142kts
02-Feb-19 20:59 35.382323 -119.192335 63 3179ft 146kts
02-Feb-19 21:00 35.399869 -119.144162 65 2759ft 142kts
02-Feb-19 21:01 35.415818 -119.102942 61 2253ft 118kts
02-Feb-19 21:02 35.413765 -119.072226 141 1886ft 89kts
02-Feb-19 21:03 35.395706 -119.050481 93 1610ft 82kts
02-Feb-19 21:04 35.410070 -119.032345 349 1356ft 74kts
02-Feb-19 21:05 35.427053 -119.048002 313 671ft 73kts
02-Feb-19 21:06 35.437996 -119.060212 44 510ft 14kts
02-Feb-19 21:07 35.436785 -119.055566 140 510ft 26kts
02-Feb-19 21:08 35.435456 -119.053417 60 510ft 7kts
02-Feb-19 21:09 35.435482 -119.053225 86 510ft 0kts
02-Feb-19 21:10 35.435482 -119.053225 86 510ft 0kts
02-Feb-19 21:11 35.435482 -119.053225 86 510ft 0kts

Navigation Log

Ident Type
Flight plan parsing failed, navigation log unavailable